sensor_id;sensor_type;location;lat;lon;timestamp;P1;durP1;ratioP1;P2;durP2;ratioP2
17927;SDS011;9089;58.396;15.544;2022-08-19T00:02:18;19.10;;;17.25;;
17927;SDS011;9089;58.396;15.544;2022-08-19T00:04:44;19.77;;;17.90;;
17927;SDS011;9089;58.396;15.544;2022-08-19T00:07:11;19.27;;;17.38;;
17927;SDS011;9089;58.396;15.544;2022-08-19T00:09:38;16.75;;;15.13;;
17927;SDS011;9089;58.396;15.544;2022-08-19T00:12:04;20.55;;;18.63;;
17927;SDS011;9089;58.396;15.544;2022-08-19T00:14:29;18.10;;;16.33;;
17927;SDS011;9089;58.396;15.544;2022-08-19T00:16:56;18.38;;;16.65;;
17927;SDS011;9089;58.396;15.544;2022-08-19T00:19:22;16.77;;;15.18;;
17927;SDS011;9089;58.396;15.544;2022-08-19T00:21:47;18.00;;;16.30;;
17927;SDS011;9089;58.396;15.544;2022-08-19T00:24:13;18.02;;;16.40;;
17927;SDS011;9089;58.396;15.544;2022-08-19T00:26:41;17.70;;;15.90;;
17927;SDS011;9089;58.396;15.544;2022-08-19T00:29:07;19.10;;;17.20;;
17927;SDS011;9089;58.396;15.544;2022-08-19T00:31:33;20.10;;;18.10;;
17927;SDS011;9089;58.396;15.544;2022-08-19T00:33:59;22.23;;;20.10;;
17927;SDS011;9089;58.396;15.544;2022-08-19T00:36:25;21.40;;;19.20;;
17927;SDS011;9089;58.396;15.544;2022-08-19T00:38:50;21.40;;;19.48;;
17927;SDS011;9089;58.396;15.544;2022-08-19T00:41:17;21.20;;;19.00;;
17927;SDS011;9089;58.396;15.544;2022-08-19T00:43:57;20.80;;;18.85;;
17927;SDS011;9089;58.396;15.544;2022-08-19T00:46:22;23.42;;;20.80;;
17927;SDS011;9089;58.396;15.544;2022-08-19T00:48:48;23.63;;;21.33;;
17927;SDS011;9089;58.396;15.544;2022-08-19T00:51:13;22.40;;;20.13;;
17927;SDS011;9089;58.396;15.544;2022-08-19T00:53:38;23.20;;;20.80;;
17927;SDS011;9089;58.396;15.544;2022-08-19T00:56:05;21.38;;;19.17;;
17927;SDS011;9089;58.396;15.544;2022-08-19T00:58:32;19.65;;;17.63;;
17927;SDS011;9089;58.396;15.544;2022-08-19T01:00:59;19.20;;;17.27;;
17927;SDS011;9089;58.396;15.544;2022-08-19T01:03:25;19.73;;;16.38;;
17927;SDS011;9089;58.396;15.544;2022-08-19T01:05:51;19.27;;;17.50;;
17927;SDS011;9089;58.396;15.544;2022-08-19T01:08:17;17.20;;;15.70;;
17927;SDS011;9089;58.396;15.544;2022-08-19T01:10:45;18.90;;;17.00;;
17927;SDS011;9089;58.396;15.544;2022-08-19T01:13:13;17.50;;;15.95;;
17927;SDS011;9089;58.396;15.544;2022-08-19T01:15:40;18.63;;;16.70;;
17927;SDS011;9089;58.396;15.544;2022-08-19T01:18:09;19.35;;;17.33;;
17927;SDS011;9089;58.396;15.544;2022-08-19T01:20:35;20.27;;;18.20;;
17927;SDS011;9089;58.396;15.544;2022-08-19T01:23:02;21.70;;;19.60;;
17927;SDS011;9089;58.396;15.544;2022-08-19T01:25:29;18.42;;;16.52;;
17927;SDS011;9089;58.396;15.544;2022-08-19T01:27:57;18.50;;;16.73;;
17927;SDS011;9089;58.396;15.544;2022-08-19T01:30:23;18.05;;;16.15;;
17927;SDS011;9089;58.396;15.544;2022-08-19T01:32:50;16.42;;;15.02;;
17927;SDS011;9089;58.396;15.544;2022-08-19T01:35:17;17.13;;;15.32;;
17927;SDS011;9089;58.396;15.544;2022-08-19T01:37:44;17.80;;;15.73;;
17927;SDS011;9089;58.396;15.544;2022-08-19T01:40:11;18.42;;;16.73;;
17927;SDS011;9089;58.396;15.544;2022-08-19T01:42:37;21.27;;;18.55;;
17927;SDS011;9089;58.396;15.544;2022-08-19T01:45:02;17.42;;;15.73;;
17927;SDS011;9089;58.396;15.544;2022-08-19T01:47:28;18.05;;;16.52;;
17927;SDS011;9089;58.396;15.544;2022-08-19T01:49:53;20.08;;;18.08;;
17927;SDS011;9089;58.396;15.544;2022-08-19T01:52:19;20.95;;;18.90;;
17927;SDS011;9089;58.396;15.544;2022-08-19T01:54:44;23.88;;;20.00;;
17927;SDS011;9089;58.396;15.544;2022-08-19T01:57:12;28.30;;;23.67;;
17927;SDS011;9089;58.396;15.544;2022-08-19T01:59:38;21.60;;;19.42;;
17927;SDS011;9089;58.396;15.544;2022-08-19T02:02:05;21.05;;;18.95;;
17927;SDS011;9089;58.396;15.544;2022-08-19T02:04:33;21.00;;;18.88;;
17927;SDS011;9089;58.396;15.544;2022-08-19T02:06:59;21.75;;;19.65;;
17927;SDS011;9089;58.396;15.544;2022-08-19T02:09:24;26.50;;;22.83;;
17927;SDS011;9089;58.396;15.544;2022-08-19T02:11:50;30.88;;;25.98;;
17927;SDS011;9089;58.396;15.544;2022-08-19T02:14:17;33.15;;;27.27;;
17927;SDS011;9089;58.396;15.544;2022-08-19T02:16:42;33.25;;;26.05;;
17927;SDS011;9089;58.396;15.544;2022-08-19T02:19:08;32.63;;;26.20;;
17927;SDS011;9089;58.396;15.544;2022-08-19T02:21:33;38.80;;;27.98;;
17927;SDS011;9089;58.396;15.544;2022-08-19T02:23:59;37.15;;;27.38;;
17927;SDS011;9089;58.396;15.544;2022-08-19T02:26:24;42.83;;;28.95;;
17927;SDS011;9089;58.396;15.544;2022-08-19T02:28:51;38.38;;;29.33;;
17927;SDS011;9089;58.396;15.544;2022-08-19T02:31:20;37.85;;;28.10;;
17927;SDS011;9089;58.396;15.544;2022-08-19T02:33:47;33.38;;;28.23;;
17927;SDS011;9089;58.396;15.544;2022-08-19T02:36:13;37.65;;;29.15;;
17927;SDS011;9089;58.396;15.544;2022-08-19T02:38:39;42.63;;;29.17;;
17927;SDS011;9089;58.396;15.544;2022-08-19T02:41:05;43.20;;;29.70;;
17927;SDS011;9089;58.396;15.544;2022-08-19T02:43:32;46.00;;;30.23;;
17927;SDS011;9089;58.396;15.544;2022-08-19T02:46:01;47.90;;;30.48;;
17927;SDS011;9089;58.396;15.544;2022-08-19T02:48:29;45.15;;;29.35;;
17927;SDS011;9089;58.396;15.544;2022-08-19T02:50:54;36.88;;;28.75;;
17927;SDS011;9089;58.396;15.544;2022-08-19T02:53:23;50.63;;;31.80;;
17927;SDS011;9089;58.396;15.544;2022-08-19T02:55:48;43.95;;;30.30;;
17927;SDS011;9089;58.396;15.544;2022-08-19T02:58:15;40.20;;;28.95;;
17927;SDS011;9089;58.396;15.544;2022-08-19T03:00:41;46.42;;;30.23;;
17927;SDS011;9089;58.396;15.544;2022-08-19T03:03:07;37.67;;;28.17;;
17927;SDS011;9089;58.396;15.544;2022-08-19T03:05:34;37.05;;;27.95;;
17927;SDS011;9089;58.396;15.544;2022-08-19T03:07:59;39.47;;;27.98;;
17927;SDS011;9089;58.396;15.544;2022-08-19T03:10:25;34.85;;;27.38;;
17927;SDS011;9089;58.396;15.544;2022-08-19T03:12:50;41.22;;;28.58;;
17927;SDS011;9089;58.396;15.544;2022-08-19T03:15:16;45.10;;;29.50;;
17927;SDS011;9089;58.396;15.544;2022-08-19T03:17:41;44.55;;;30.25;;
17927;SDS011;9089;58.396;15.544;2022-08-19T03:20:07;39.03;;;28.35;;
17927;SDS011;9089;58.396;15.544;2022-08-19T03:22:34;38.83;;;27.95;;
17927;SDS011;9089;58.396;15.544;2022-08-19T03:25:00;38.42;;;28.55;;
17927;SDS011;9089;58.396;15.544;2022-08-19T03:27:25;36.13;;;28.23;;
17927;SDS011;9089;58.396;15.544;2022-08-19T03:29:51;39.50;;;26.65;;
17927;SDS011;9089;58.396;15.544;2022-08-19T03:32:16;37.00;;;28.95;;
17927;SDS011;9089;58.396;15.544;2022-08-19T03:34:42;36.75;;;26.98;;
17927;SDS011;9089;58.396;15.544;2022-08-19T03:37:09;43.47;;;29.52;;
17927;SDS011;9089;58.396;15.544;2022-08-19T03:39:36;38.25;;;28.83;;
17927;SDS011;9089;58.396;15.544;2022-08-19T03:42:02;40.53;;;29.50;;
17927;SDS011;9089;58.396;15.544;2022-08-19T03:44:28;44.45;;;29.85;;
17927;SDS011;9089;58.396;15.544;2022-08-19T03:46:55;41.95;;;29.05;;
17927;SDS011;9089;58.396;15.544;2022-08-19T03:49:21;38.10;;;27.92;;
17927;SDS011;9089;58.396;15.544;2022-08-19T03:51:47;36.25;;;27.20;;
17927;SDS011;9089;58.396;15.544;2022-08-19T03:54:14;36.55;;;26.25;;
17927;SDS011;9089;58.396;15.544;2022-08-19T03:56:41;37.88;;;27.50;;
17927;SDS011;9089;58.396;15.544;2022-08-19T03:59:08;33.78;;;25.38;;
17927;SDS011;9089;58.396;15.544;2022-08-19T04:01:34;31.73;;;24.92;;
17927;SDS011;9089;58.396;15.544;2022-08-19T04:04:00;36.22;;;25.98;;
17927;SDS011;9089;58.396;15.544;2022-08-19T04:06:26;32.55;;;25.60;;
17927;SDS011;9089;58.396;15.544;2022-08-19T04:08:53;35.72;;;25.63;;
17927;SDS011;9089;58.396;15.544;2022-08-19T04:11:22;36.75;;;27.25;;
17927;SDS011;9089;58.396;15.544;2022-08-19T04:13:50;36.83;;;26.70;;
17927;SDS011;9089;58.396;15.544;2022-08-19T04:16:16;34.72;;;25.95;;
17927;SDS011;9089;58.396;15.544;2022-08-19T04:18:42;37.20;;;26.42;;
17927;SDS011;9089;58.396;15.544;2022-08-19T04:21:08;38.20;;;27.08;;
17927;SDS011;9089;58.396;15.544;2022-08-19T04:23:33;42.03;;;27.40;;
17927;SDS011;9089;58.396;15.544;2022-08-19T04:25:59;36.30;;;25.83;;
17927;SDS011;9089;58.396;15.544;2022-08-19T04:28:25;36.92;;;27.73;;
17927;SDS011;9089;58.396;15.544;2022-08-19T04:30:53;40.20;;;27.90;;
17927;SDS011;9089;58.396;15.544;2022-08-19T04:33:19;35.15;;;27.42;;
17927;SDS011;9089;58.396;15.544;2022-08-19T04:35:46;34.65;;;26.77;;
17927;SDS011;9089;58.396;15.544;2022-08-19T04:38:12;32.30;;;26.10;;
17927;SDS011;9089;58.396;15.544;2022-08-19T04:40:39;36.30;;;26.63;;
17927;SDS011;9089;58.396;15.544;2022-08-19T04:43:23;28.58;;;23.85;;
17927;SDS011;9089;58.396;15.544;2022-08-19T04:45:49;31.02;;;25.25;;
17927;SDS011;9089;58.396;15.544;2022-08-19T04:48:16;29.58;;;23.98;;
17927;SDS011;9089;58.396;15.544;2022-08-19T04:50:51;28.83;;;23.23;;
17927;SDS011;9089;58.396;15.544;2022-08-19T04:53:17;26.80;;;22.27;;
17927;SDS011;9089;58.396;15.544;2022-08-19T04:55:43;25.70;;;21.48;;
17927;SDS011;9089;58.396;15.544;2022-08-19T04:58:08;22.73;;;20.33;;
17927;SDS011;9089;58.396;15.544;2022-08-19T05:00:37;22.98;;;20.30;;
17927;SDS011;9089;58.396;15.544;2022-08-19T05:03:02;24.60;;;21.35;;
17927;SDS011;9089;58.396;15.544;2022-08-19T05:05:29;24.58;;;21.98;;
17927;SDS011;9089;58.396;15.544;2022-08-19T05:07:56;23.38;;;20.90;;
17927;SDS011;9089;58.396;15.544;2022-08-19T05:10:22;23.90;;;21.25;;
17927;SDS011;9089;58.396;15.544;2022-08-19T05:12:47;26.05;;;20.88;;
17927;SDS011;9089;58.396;15.544;2022-08-19T05:15:13;23.20;;;20.67;;
17927;SDS011;9089;58.396;15.544;2022-08-19T05:17:38;22.92;;;20.20;;
17927;SDS011;9089;58.396;15.544;2022-08-19T05:20:24;21.80;;;19.58;;
17927;SDS011;9089;58.396;15.544;2022-08-19T05:23:11;20.67;;;18.65;;
17927;SDS011;9089;58.396;15.544;2022-08-19T05:25:38;22.05;;;19.85;;
17927;SDS011;9089;58.396;15.544;2022-08-19T05:28:04;19.48;;;17.50;;
17927;SDS011;9089;58.396;15.544;2022-08-19T05:30:29;20.30;;;18.30;;
17927;SDS011;9089;58.396;15.544;2022-08-19T05:32:55;19.08;;;17.23;;
17927;SDS011;9089;58.396;15.544;2022-08-19T05:35:20;18.85;;;17.05;;
17927;SDS011;9089;58.396;15.544;2022-08-19T05:37:48;18.58;;;16.95;;
17927;SDS011;9089;58.396;15.544;2022-08-19T05:40:15;18.70;;;16.95;;
17927;SDS011;9089;58.396;15.544;2022-08-19T05:42:40;17.55;;;15.88;;
17927;SDS011;9089;58.396;15.544;2022-08-19T05:45:06;17.77;;;16.13;;
17927;SDS011;9089;58.396;15.544;2022-08-19T05:47:32;17.27;;;15.68;;
17927;SDS011;9089;58.396;15.544;2022-08-19T05:49:57;17.17;;;15.57;;
17927;SDS011;9089;58.396;15.544;2022-08-19T05:52:23;17.05;;;15.55;;
17927;SDS011;9089;58.396;15.544;2022-08-19T05:54:48;17.08;;;15.55;;
17927;SDS011;9089;58.396;15.544;2022-08-19T05:57:17;17.35;;;15.65;;
17927;SDS011;9089;58.396;15.544;2022-08-19T05:59:43;16.35;;;14.85;;
17927;SDS011;9089;58.396;15.544;2022-08-19T06:02:10;17.10;;;15.50;;
17927;SDS011;9089;58.396;15.544;2022-08-19T06:04:36;17.50;;;15.95;;
17927;SDS011;9089;58.396;15.544;2022-08-19T06:07:01;17.38;;;15.77;;
17927;SDS011;9089;58.396;15.544;2022-08-19T06:09:27;16.00;;;14.55;;
17927;SDS011;9089;58.396;15.544;2022-08-19T06:11:53;15.93;;;14.40;;
17927;SDS011;9089;58.396;15.544;2022-08-19T06:14:22;15.20;;;13.90;;
17927;SDS011;9089;58.396;15.544;2022-08-19T06:16:48;13.68;;;12.48;;
17927;SDS011;9089;58.396;15.544;2022-08-19T06:19:16;14.27;;;12.77;;
17927;SDS011;9089;58.396;15.544;2022-08-19T06:21:42;13.23;;;12.15;;
17927;SDS011;9089;58.396;15.544;2022-08-19T06:24:09;13.00;;;11.90;;
17927;SDS011;9089;58.396;15.544;2022-08-19T06:26:36;12.75;;;11.65;;
17927;SDS011;9089;58.396;15.544;2022-08-19T06:29:01;12.38;;;11.38;;
17927;SDS011;9089;58.396;15.544;2022-08-19T06:31:28;12.57;;;11.57;;
17927;SDS011;9089;58.396;15.544;2022-08-19T06:33:54;12.38;;;11.27;;
17927;SDS011;9089;58.396;15.544;2022-08-19T06:36:20;11.80;;;10.90;;
17927;SDS011;9089;58.396;15.544;2022-08-19T06:38:46;10.30;;;9.50;;
17927;SDS011;9089;58.396;15.544;2022-08-19T06:41:11;12.05;;;10.95;;
17927;SDS011;9089;58.396;15.544;2022-08-19T06:43:37;10.90;;;9.80;;
17927;SDS011;9089;58.396;15.544;2022-08-19T06:46:02;10.63;;;9.77;;
17927;SDS011;9089;58.396;15.544;2022-08-19T06:48:30;10.88;;;9.77;;
17927;SDS011;9089;58.396;15.544;2022-08-19T06:50:55;9.85;;;9.02;;
17927;SDS011;9089;58.396;15.544;2022-08-19T06:53:21;8.93;;;8.20;;
17927;SDS011;9089;58.396;15.544;2022-08-19T06:55:46;9.30;;;8.50;;
17927;SDS011;9089;58.396;15.544;2022-08-19T06:58:12;8.57;;;7.82;;
17927;SDS011;9089;58.396;15.544;2022-08-19T07:00:37;9.27;;;8.48;;
17927;SDS011;9089;58.396;15.544;2022-08-19T07:03:03;8.45;;;7.65;;
17927;SDS011;9089;58.396;15.544;2022-08-19T07:05:29;8.38;;;7.68;;
17927;SDS011;9089;58.396;15.544;2022-08-19T07:07:55;7.18;;;6.63;;
17927;SDS011;9089;58.396;15.544;2022-08-19T07:10:21;7.60;;;6.90;;
17927;SDS011;9089;58.396;15.544;2022-08-19T07:12:47;7.75;;;7.10;;
17927;SDS011;9089;58.396;15.544;2022-08-19T07:15:14;7.47;;;6.80;;
17927;SDS011;9089;58.396;15.544;2022-08-19T07:17:40;7.80;;;7.03;;
17927;SDS011;9089;58.396;15.544;2022-08-19T07:20:06;6.88;;;6.28;;
17927;SDS011;9089;58.396;15.544;2022-08-19T07:22:33;7.05;;;6.45;;
17927;SDS011;9089;58.396;15.544;2022-08-19T07:24:59;7.50;;;6.75;;
17927;SDS011;9089;58.396;15.544;2022-08-19T07:27:24;6.38;;;5.70;;
17927;SDS011;9089;58.396;15.544;2022-08-19T07:29:50;6.75;;;6.15;;
17927;SDS011;9089;58.396;15.544;2022-08-19T07:32:15;6.60;;;6.00;;
17927;SDS011;9089;58.396;15.544;2022-08-19T07:34:41;6.57;;;6.07;;
17927;SDS011;9089;58.396;15.544;2022-08-19T07:37:06;6.90;;;5.60;;
17927;SDS011;9089;58.396;15.544;2022-08-19T07:39:34;6.25;;;5.70;;
17927;SDS011;9089;58.396;15.544;2022-08-19T07:42:01;5.70;;;5.20;;
17927;SDS011;9089;58.396;15.544;2022-08-19T07:44:27;6.30;;;5.70;;
17927;SDS011;9089;58.396;15.544;2022-08-19T07:46:53;5.40;;;4.90;;
17927;SDS011;9089;58.396;15.544;2022-08-19T07:49:21;6.00;;;5.50;;
17927;SDS011;9089;58.396;15.544;2022-08-19T07:51:47;6.20;;;5.60;;
17927;SDS011;9089;58.396;15.544;2022-08-19T07:54:13;5.65;;;5.20;;
17927;SDS011;9089;58.396;15.544;2022-08-19T07:56:40;5.43;;;4.93;;
17927;SDS011;9089;58.396;15.544;2022-08-19T07:59:06;5.35;;;4.85;;
17927;SDS011;9089;58.396;15.544;2022-08-19T08:01:32;5.50;;;5.00;;
17927;SDS011;9089;58.396;15.544;2022-08-19T08:03:58;5.57;;;5.15;;
17927;SDS011;9089;58.396;15.544;2022-08-19T08:06:42;7.10;;;4.90;;
17927;SDS011;9089;58.396;15.544;2022-08-19T08:09:27;5.13;;;4.63;;
17927;SDS011;9089;58.396;15.544;2022-08-19T08:11:55;5.88;;;4.82;;
17927;SDS011;9089;58.396;15.544;2022-08-19T08:14:23;7.35;;;4.93;;
17927;SDS011;9089;58.396;15.544;2022-08-19T08:16:49;4.78;;;4.30;;
17927;SDS011;9089;58.396;15.544;2022-08-19T08:19:15;5.68;;;4.43;;
17927;SDS011;9089;58.396;15.544;2022-08-19T08:21:41;5.45;;;4.93;;
17927;SDS011;9089;58.396;15.544;2022-08-19T08:24:06;5.72;;;5.05;;
17927;SDS011;9089;58.396;15.544;2022-08-19T08:26:32;5.05;;;4.65;;
17927;SDS011;9089;58.396;15.544;2022-08-19T08:28:59;4.78;;;4.38;;
17927;SDS011;9089;58.396;15.544;2022-08-19T08:31:24;5.82;;;5.20;;
17927;SDS011;9089;58.396;15.544;2022-08-19T08:33:50;5.28;;;3.92;;
17927;SDS011;9089;58.396;15.544;2022-08-19T08:36:15;5.97;;;4.38;;
17927;SDS011;9089;58.396;15.544;2022-08-19T08:38:41;5.22;;;4.10;;
17927;SDS011;9089;58.396;15.544;2022-08-19T08:41:09;5.05;;;4.07;;
17927;SDS011;9089;58.396;15.544;2022-08-19T08:43:39;4.35;;;3.95;;
17927;SDS011;9089;58.396;15.544;2022-08-19T08:46:11;7.38;;;4.22;;
17927;SDS011;9089;58.396;15.544;2022-08-19T08:48:39;9.23;;;4.07;;
17927;SDS011;9089;58.396;15.544;2022-08-19T08:51:09;6.90;;;3.78;;
17927;SDS011;9089;58.396;15.544;2022-08-19T08:53:36;4.13;;;3.72;;
17927;SDS011;9089;58.396;15.544;2022-08-19T08:56:02;4.60;;;4.20;;
17927;SDS011;9089;58.396;15.544;2022-08-19T08:58:28;4.50;;;3.88;;
17927;SDS011;9089;58.396;15.544;2022-08-19T09:00:56;4.00;;;3.70;;
17927;SDS011;9089;58.396;15.544;2022-08-19T09:03:24;4.55;;;4.15;;
17927;SDS011;9089;58.396;15.544;2022-08-19T09:05:55;4.05;;;3.65;;
17927;SDS011;9089;58.396;15.544;2022-08-19T09:08:23;4.43;;;4.03;;
17927;SDS011;9089;58.396;15.544;2022-08-19T09:10:51;5.18;;;4.15;;
17927;SDS011;9089;58.396;15.544;2022-08-19T09:13:18;7.07;;;4.72;;
17927;SDS011;9089;58.396;15.544;2022-08-19T09:15:49;5.70;;;3.85;;
17927;SDS011;9089;58.396;15.544;2022-08-19T09:18:17;7.07;;;5.05;;
17927;SDS011;9089;58.396;15.544;2022-08-19T09:20:45;7.53;;;4.40;;
17927;SDS011;9089;58.396;15.544;2022-08-19T09:23:11;11.85;;;3.97;;
17927;SDS011;9089;58.396;15.544;2022-08-19T09:25:37;4.68;;;4.07;;
17927;SDS011;9089;58.396;15.544;2022-08-19T09:28:05;5.78;;;4.35;;
17927;SDS011;9089;58.396;15.544;2022-08-19T09:30:31;5.47;;;4.15;;
17927;SDS011;9089;58.396;15.544;2022-08-19T09:32:57;6.75;;;4.13;;
17927;SDS011;9089;58.396;15.544;2022-08-19T09:35:24;4.80;;;4.18;;
17927;SDS011;9089;58.396;15.544;2022-08-19T09:37:51;7.15;;;4.70;;
17927;SDS011;9089;58.396;15.544;2022-08-19T09:40:18;8.20;;;4.20;;
17927;SDS011;9089;58.396;15.544;2022-08-19T09:42:43;5.18;;;4.65;;
17927;SDS011;9089;58.396;15.544;2022-08-19T09:45:09;6.50;;;4.57;;
17927;SDS011;9089;58.396;15.544;2022-08-19T09:47:35;7.72;;;4.47;;
17927;SDS011;9089;58.396;15.544;2022-08-19T09:50:03;5.75;;;4.43;;
17927;SDS011;9089;58.396;15.544;2022-08-19T09:52:29;5.50;;;4.35;;
17927;SDS011;9089;58.396;15.544;2022-08-19T09:54:56;4.22;;;3.83;;
17927;SDS011;9089;58.396;15.544;2022-08-19T09:57:21;4.13;;;3.70;;
17927;SDS011;9089;58.396;15.544;2022-08-19T09:59:46;7.63;;;4.22;;
17927;SDS011;9089;58.396;15.544;2022-08-19T10:02:12;5.70;;;4.32;;
17927;SDS011;9089;58.396;15.544;2022-08-19T10:04:38;6.18;;;4.30;;
17927;SDS011;9089;58.396;15.544;2022-08-19T10:07:22;6.07;;;4.72;;
17927;SDS011;9089;58.396;15.544;2022-08-19T10:09:47;5.20;;;4.05;;
17927;SDS011;9089;58.396;15.544;2022-08-19T10:12:14;4.80;;;4.05;;
17927;SDS011;9089;58.396;15.544;2022-08-19T10:14:40;5.43;;;4.00;;
17927;SDS011;9089;58.396;15.544;2022-08-19T10:17:05;4.57;;;3.33;;
17927;SDS011;9089;58.396;15.544;2022-08-19T10:19:31;7.75;;;4.00;;
17927;SDS011;9089;58.396;15.544;2022-08-19T10:22:02;6.00;;;3.80;;
17927;SDS011;9089;58.396;15.544;2022-08-19T10:24:28;4.80;;;4.28;;
17927;SDS011;9089;58.396;15.544;2022-08-19T10:26:53;4.88;;;3.75;;
17927;SDS011;9089;58.396;15.544;2022-08-19T10:29:20;6.35;;;4.40;;
17927;SDS011;9089;58.396;15.544;2022-08-19T10:31:46;6.60;;;3.90;;
17927;SDS011;9089;58.396;15.544;2022-08-19T10:34:12;5.35;;;3.80;;
17927;SDS011;9089;58.396;15.544;2022-08-19T10:36:38;5.57;;;3.92;;
17927;SDS011;9089;58.396;15.544;2022-08-19T10:39:05;3.95;;;3.55;;
17927;SDS011;9089;58.396;15.544;2022-08-19T10:41:31;6.03;;;4.15;;
17927;SDS011;9089;58.396;15.544;2022-08-19T10:43:58;7.00;;;4.05;;
17927;SDS011;9089;58.396;15.544;2022-08-19T10:46:26;8.23;;;4.28;;
17927;SDS011;9089;58.396;15.544;2022-08-19T10:48:52;6.85;;;3.83;;
17927;SDS011;9089;58.396;15.544;2022-08-19T10:51:17;4.45;;;3.78;;
17927;SDS011;9089;58.396;15.544;2022-08-19T10:54:02;4.50;;;4.10;;
17927;SDS011;9089;58.396;15.544;2022-08-19T10:56:28;5.20;;;3.90;;
17927;SDS011;9089;58.396;15.544;2022-08-19T10:59:12;4.63;;;4.00;;
17927;SDS011;9089;58.396;15.544;2022-08-19T11:01:40;8.30;;;3.95;;
17927;SDS011;9089;58.396;15.544;2022-08-19T11:04:06;5.68;;;4.63;;
17927;SDS011;9089;58.396;15.544;2022-08-19T11:06:35;6.15;;;4.28;;
17927;SDS011;9089;58.396;15.544;2022-08-19T11:09:00;5.47;;;4.38;;
17927;SDS011;9089;58.396;15.544;2022-08-19T11:11:26;7.00;;;4.15;;
17927;SDS011;9089;58.396;15.544;2022-08-19T11:13:51;4.30;;;3.70;;
17927;SDS011;9089;58.396;15.544;2022-08-19T11:16:18;5.38;;;3.70;;
17927;SDS011;9089;58.396;15.544;2022-08-19T11:18:46;7.28;;;3.90;;
17927;SDS011;9089;58.396;15.544;2022-08-19T11:21:13;5.22;;;3.80;;
17927;SDS011;9089;58.396;15.544;2022-08-19T11:23:42;5.28;;;3.80;;
17927;SDS011;9089;58.396;15.544;2022-08-19T11:26:08;6.70;;;4.10;;
17927;SDS011;9089;58.396;15.544;2022-08-19T11:28:33;3.92;;;3.60;;
17927;SDS011;9089;58.396;15.544;2022-08-19T11:30:59;6.32;;;3.85;;
17927;SDS011;9089;58.396;15.544;2022-08-19T11:33:24;7.05;;;4.22;;
17927;SDS011;9089;58.396;15.544;2022-08-19T11:35:52;6.53;;;3.70;;
17927;SDS011;9089;58.396;15.544;2022-08-19T11:38:18;5.00;;;3.95;;
17927;SDS011;9089;58.396;15.544;2022-08-19T11:40:44;6.05;;;3.80;;
17927;SDS011;9089;58.396;15.544;2022-08-19T11:43:10;4.95;;;3.40;;
17927;SDS011;9089;58.396;15.544;2022-08-19T11:45:35;3.60;;;3.30;;
17927;SDS011;9089;58.396;15.544;2022-08-19T11:48:01;4.75;;;3.60;;
17927;SDS011;9089;58.396;15.544;2022-08-19T11:50:27;5.90;;;3.92;;
17927;SDS011;9089;58.396;15.544;2022-08-19T11:52:54;6.50;;;3.45;;
17927;SDS011;9089;58.396;15.544;2022-08-19T11:55:20;7.05;;;4.28;;
17927;SDS011;9089;58.396;15.544;2022-08-19T11:57:45;6.03;;;3.78;;
17927;SDS011;9089;58.396;15.544;2022-08-19T12:00:12;4.38;;;3.17;;
17927;SDS011;9089;58.396;15.544;2022-08-19T12:02:38;4.43;;;3.65;;
17927;SDS011;9089;58.396;15.544;2022-08-19T12:05:06;5.75;;;3.50;;
17927;SDS011;9089;58.396;15.544;2022-08-19T12:07:33;4.80;;;3.80;;
17927;SDS011;9089;58.396;15.544;2022-08-19T12:10:00;4.40;;;3.25;;
17927;SDS011;9089;58.396;15.544;2022-08-19T12:12:25;4.30;;;3.42;;
17927;SDS011;9089;58.396;15.544;2022-08-19T12:14:51;5.95;;;3.40;;
17927;SDS011;9089;58.396;15.544;2022-08-19T12:17:21;4.13;;;3.30;;
17927;SDS011;9089;58.396;15.544;2022-08-19T12:19:47;5.72;;;3.38;;
17927;SDS011;9089;58.396;15.544;2022-08-19T12:22:12;5.57;;;3.67;;
17927;SDS011;9089;58.396;15.544;2022-08-19T12:24:37;6.32;;;3.25;;
17927;SDS011;9089;58.396;15.544;2022-08-19T12:27:04;6.80;;;3.53;;
17927;SDS011;9089;58.396;15.544;2022-08-19T12:29:30;5.50;;;3.58;;
17927;SDS011;9089;58.396;15.544;2022-08-19T12:31:56;5.18;;;3.67;;
17927;SDS011;9089;58.396;15.544;2022-08-19T12:34:26;10.23;;;3.58;;
17927;SDS011;9089;58.396;15.544;2022-08-19T12:36:54;5.38;;;3.88;;
17927;SDS011;9089;58.396;15.544;2022-08-19T12:39:20;4.18;;;3.50;;
17927;SDS011;9089;58.396;15.544;2022-08-19T12:41:45;6.63;;;3.97;;
17927;SDS011;9089;58.396;15.544;2022-08-19T12:44:13;4.45;;;3.65;;
17927;SDS011;9089;58.396;15.544;2022-08-19T12:46:38;4.43;;;3.78;;
17927;SDS011;9089;58.396;15.544;2022-08-19T12:49:04;4.78;;;3.47;;
17927;SDS011;9089;58.396;15.544;2022-08-19T12:51:29;3.83;;;3.42;;
17927;SDS011;9089;58.396;15.544;2022-08-19T12:53:56;7.18;;;3.92;;
17927;SDS011;9089;58.396;15.544;2022-08-19T12:56:22;4.18;;;3.83;;
17927;SDS011;9089;58.396;15.544;2022-08-19T12:58:47;4.95;;;3.45;;
17927;SDS011;9089;58.396;15.544;2022-08-19T13:01:15;6.47;;;3.80;;
17927;SDS011;9089;58.396;15.544;2022-08-19T13:03:41;5.82;;;3.38;;
17927;SDS011;9089;58.396;15.544;2022-08-19T13:06:10;6.88;;;4.10;;
17927;SDS011;9089;58.396;15.544;2022-08-19T13:08:35;3.35;;;3.05;;
17927;SDS011;9089;58.396;15.544;2022-08-19T13:11:11;6.22;;;3.58;;
17927;SDS011;9089;58.396;15.544;2022-08-19T13:13:37;4.93;;;3.45;;
17927;SDS011;9089;58.396;15.544;2022-08-19T13:16:06;4.40;;;3.00;;
17927;SDS011;9089;58.396;15.544;2022-08-19T13:18:33;3.88;;;3.05;;
17927;SDS011;9089;58.396;15.544;2022-08-19T13:21:01;4.85;;;3.78;;
17927;SDS011;9089;58.396;15.544;2022-08-19T13:23:28;6.28;;;3.55;;
17927;SDS011;9089;58.396;15.544;2022-08-19T13:25:57;5.47;;;3.55;;
17927;SDS011;9089;58.396;15.544;2022-08-19T13:28:23;5.30;;;3.35;;
17927;SDS011;9089;58.396;15.544;2022-08-19T13:30:48;4.88;;;3.50;;
17927;SDS011;9089;58.396;15.544;2022-08-19T13:33:34;4.22;;;3.30;;
17927;SDS011;9089;58.396;15.544;2022-08-19T13:36:00;3.53;;;3.22;;
17927;SDS011;9089;58.396;15.544;2022-08-19T13:38:26;3.67;;;3.03;;
17927;SDS011;9089;58.396;15.544;2022-08-19T13:40:52;4.95;;;2.83;;
17927;SDS011;9089;58.396;15.544;2022-08-19T13:43:19;4.50;;;3.20;;
17927;SDS011;9089;58.396;15.544;2022-08-19T13:45:45;5.03;;;3.10;;
17927;SDS011;9089;58.396;15.544;2022-08-19T13:48:11;5.97;;;3.80;;
17927;SDS011;9089;58.396;15.544;2022-08-19T13:50:39;4.47;;;3.40;;
17927;SDS011;9089;58.396;15.544;2022-08-19T13:53:08;4.47;;;2.90;;
17927;SDS011;9089;58.396;15.544;2022-08-19T13:55:34;3.78;;;2.85;;
17927;SDS011;9089;58.396;15.544;2022-08-19T13:58:01;3.40;;;3.03;;
17927;SDS011;9089;58.396;15.544;2022-08-19T14:00:27;4.60;;;3.45;;
17927;SDS011;9089;58.396;15.544;2022-08-19T14:02:54;5.70;;;3.35;;
17927;SDS011;9089;58.396;15.544;2022-08-19T14:05:20;4.65;;;3.63;;
17927;SDS011;9089;58.396;15.544;2022-08-19T14:07:47;4.10;;;3.22;;
17927;SDS011;9089;58.396;15.544;2022-08-19T14:10:13;3.03;;;2.80;;
17927;SDS011;9089;58.396;15.544;2022-08-19T14:12:38;4.05;;;3.35;;
17927;SDS011;9089;58.396;15.544;2022-08-19T14:15:05;3.95;;;3.05;;
17927;SDS011;9089;58.396;15.544;2022-08-19T14:17:31;5.40;;;3.20;;
17927;SDS011;9089;58.396;15.544;2022-08-19T14:19:56;4.30;;;3.28;;
17927;SDS011;9089;58.396;15.544;2022-08-19T14:22:22;5.13;;;3.83;;
17927;SDS011;9089;58.396;15.544;2022-08-19T14:24:49;5.75;;;3.50;;
17927;SDS011;9089;58.396;15.544;2022-08-19T14:27:15;4.28;;;3.40;;
17927;SDS011;9089;58.396;15.544;2022-08-19T14:29:40;5.05;;;3.60;;
17927;SDS011;9089;58.396;15.544;2022-08-19T14:32:06;4.10;;;3.60;;
17927;SDS011;9089;58.396;15.544;2022-08-19T14:34:31;3.92;;;3.40;;